Time;durP1;ratioP1;P1;durP2;ratioP2;P2;SDS_P1;SDS_P2;PMS_P1;PMS_P2;Temp;Humidity;BMP_temperature;BMP_pressure;BME280_temperature;BME280_humidity;BME280_pressure;Samples;Min_cycle;Max_cycle;Signal;HPM_P1;HPM_P2
2022/05/09 00:01:15;;;;;;;2.45;0.70;;;19.30;99.90;;;;;;4974111;28;20534;-71
2022/05/09 00:03:44;;;;;;;6.80;1.30;;;19.20;99.90;;;;;;4971232;28;20101;-69
2022/05/09 00:06:12;;;;;;;0.65;0.50;;;19.20;99.90;;;;;;4963095;28;20147;-69
2022/05/09 00:08:42;;;;;;;0.55;0.50;;;19.10;99.90;;;;;;4968186;28;20497;-69
2022/05/09 00:11:11;;;;;;;1.58;0.47;;;19.00;99.90;;;;;;4966725;28;20038;-70
2022/05/09 00:13:39;;;;;;;1.75;0.65;;;19.00;99.90;;;;;;4970133;28;20027;-70
2022/05/09 00:16:07;;;;;;;1.60;0.50;;;18.90;99.90;;;;;;4970410;28;20096;-70
2022/05/09 00:18:34;;;;;;;2.08;0.77;;;18.90;99.90;;;;;;4971628;28;20396;-70
2022/05/09 00:21:02;;;;;;;1.98;0.93;;;18.80;99.90;;;;;;4970402;28;20023;-71
2022/05/09 00:23:29;;;;;;;2.15;0.60;;;18.70;99.90;;;;;;4966520;28;20042;-70
2022/05/09 00:25:57;;;;;;;1.75;0.90;;;18.60;99.90;;;;;;4965699;28;20058;-71
2022/05/09 00:28:25;;;;;;;0.80;0.50;;;18.60;99.90;;;;;;4967846;28;20030;-70
2022/05/09 00:30:54;;;;;;;2.15;0.73;;;18.40;99.90;;;;;;4968867;28;20027;-69
2022/05/09 00:33:24;;;;;;;1.80;0.60;;;18.40;99.90;;;;;;4968763;28;20112;-69
2022/05/09 00:35:52;;;;;;;2.00;0.68;;;18.40;99.90;;;;;;4968402;28;20030;-70
2022/05/09 00:38:20;;;;;;;2.10;0.60;;;18.40;99.90;;;;;;4968193;28;20019;-70
2022/05/09 00:43:36;;;;;;;1.87;0.70;;;18.30;99.90;;;;;;4971083;28;20098;-71
2022/05/09 00:46:03;;;;;;;2.58;0.75;;;18.20;99.90;;;;;;4969464;28;20271;-69
2022/05/09 00:48:31;;;;;;;2.97;1.33;;;18.20;99.90;;;;;;4970341;28;20046;-71
2022/05/09 00:51:00;;;;;;;1.73;0.82;;;18.10;99.90;;;;;;4968969;28;20038;-70
2022/05/09 00:53:29;;;;;;;3.90;1.48;;;18.00;99.90;;;;;;4969282;28;20115;-68
2022/05/09 00:56:04;;;;;;;2.08;0.70;;;18.00;99.90;;;;;;4968710;28;20473;-70
2022/05/09 00:58:35;;;;;;;1.00;0.50;;;17.80;99.90;;;;;;4971523;28;20039;-69
2022/05/09 01:01:07;;;;;;;2.72;0.93;;;17.80;99.90;;;;;;4960279;28;20051;-70
2022/05/09 01:03:40;;;;;;;1.60;1.05;;;17.90;99.90;;;;;;4971356;28;20031;-69
2022/05/09 01:06:08;;;;;;;3.85;0.95;;;17.90;99.90;;;;;;4969613;28;20572;-70
2022/05/09 01:08:36;;;;;;;1.67;0.70;;;18.00;99.90;;;;;;4973124;28;20437;-68
2022/05/09 01:11:11;;;;;;;1.35;0.70;;;18.10;99.90;;;;;;4973151;28;20129;-69
2022/05/09 01:13:45;;;;;;;0.95;0.50;;;18.20;99.90;;;;;;4973012;28;20042;-69
2022/05/09 01:16:16;;;;;;;1.70;1.00;;;18.20;99.90;;;;;;4971367;28;20031;-69
2022/05/09 01:18:46;;;;;;;0.93;0.55;;;18.30;99.90;;;;;;4975418;28;20477;-69
2022/05/09 01:21:39;;;;;;;2.92;0.80;;;18.30;99.90;;;;;;4971126;28;20496;-71
2022/05/09 01:24:16;;;;;;;0.70;0.63;;;18.30;99.90;;;;;;4975143;28;20026;-69
2022/05/09 01:26:44;;;;;;;2.03;1.15;;;18.30;99.90;;;;;;4970697;28;20481;-71
2022/05/09 01:29:47;;;;;;;1.05;0.90;;;18.30;99.90;;;;;;4956790;28;20110;-70
2022/05/09 01:32:18;;;;;;;1.45;0.80;;;18.40;99.90;;;;;;4971052;28;20035;-70
2022/05/09 01:34:52;;;;;;;1.77;0.70;;;18.50;99.90;;;;;;4972172;28;20045;-71
2022/05/09 01:37:21;;;;;;;2.80;1.17;;;18.40;99.90;;;;;;4968638;28;20027;-71
2022/05/09 01:39:49;;;;;;;2.47;0.75;;;18.50;99.90;;;;;;4969228;28;20034;-71
2022/05/09 01:42:16;;;;;;;2.55;0.70;;;18.50;99.90;;;;;;4973111;28;20027;-70
2022/05/09 01:44:43;;;;;;;1.90;0.80;;;18.50;99.90;;;;;;4974462;28;20022;-70
2022/05/09 01:49:56;;;;;;;2.20;0.93;;;18.50;99.90;;;;;;4973147;28;20573;-70
2022/05/09 01:52:23;;;;;;;1.52;0.70;;;18.60;99.90;;;;;;4971651;28;20051;-70
2022/05/09 01:54:51;;;;;;;1.73;0.75;;;18.80;99.90;;;;;;4967112;28;20077;-70
2022/05/09 01:57:18;;;;;;;2.58;1.40;;;18.80;99.90;;;;;;4971877;28;20057;-71
2022/05/09 01:59:46;;;;;;;0.70;0.50;;;18.90;99.90;;;;;;4967705;28;20031;-70
2022/05/09 02:02:18;;;;;;;3.40;1.58;;;19.00;99.90;;;;;;4983654;28;20050;-69
2022/05/09 02:04:46;;;;;;;2.65;1.05;;;19.00;99.90;;;;;;4974313;28;20023;-70
2022/05/09 02:07:16;;;;;;;1.33;0.70;;;18.90;99.90;;;;;;4988234;28;20121;-70
2022/05/09 02:09:46;;;;;;;2.72;0.82;;;18.90;99.90;;;;;;4991774;28;20030;-69
2022/05/09 02:12:16;;;;;;;1.25;1.05;;;18.90;99.90;;;;;;4990325;28;20038;-70
2022/05/09 02:14:44;;;;;;;3.42;0.88;;;19.00;99.90;;;;;;4989784;28;20469;-70
2022/05/09 02:17:13;;;;;;;2.38;0.60;;;18.90;99.90;;;;;;4988573;28;20038;-70
2022/05/09 02:19:41;;;;;;;1.60;0.93;;;18.80;99.90;;;;;;4992278;28;20120;-70
2022/05/09 02:22:09;;;;;;;4.78;0.65;;;18.80;99.90;;;;;;4991000;28;20023;-70
2022/05/09 02:24:39;;;;;;;1.40;0.70;;;18.70;99.90;;;;;;4992376;28;20106;-71
2022/05/09 02:27:07;;;;;;;3.13;1.08;;;18.50;99.90;;;;;;4990326;28;20062;-70
2022/05/09 02:29:35;;;;;;;1.48;0.60;;;18.30;99.90;;;;;;4989345;28;20436;-72
2022/05/09 02:32:03;;;;;;;1.40;0.82;;;18.20;99.90;;;;;;4989013;28;20088;-70
2022/05/09 02:34:30;;;;;;;0.82;0.50;;;18.20;99.90;;;;;;4990955;28;20034;-70
2022/05/09 02:36:58;;;;;;;2.90;0.65;;;18.10;99.90;;;;;;4988199;28;20034;-70
2022/05/09 02:39:25;;;;;;;2.85;0.88;;;18.00;99.90;;;;;;4987635;28;20098;-71
2022/05/09 02:41:53;;;;;;;3.67;0.65;;;18.00;99.90;;;;;;4991312;28;20507;-70
2022/05/09 02:44:20;;;;;;;2.97;0.73;;;18.00;99.90;;;;;;4991092;28;20037;-71
2022/05/09 02:46:48;;;;;;;0.57;0.55;;;18.00;99.90;;;;;;4990745;28;20046;-70
2022/05/09 02:49:15;;;;;;;0.85;0.55;;;17.90;99.90;;;;;;4991723;28;20643;-71
2022/05/09 02:51:43;;;;;;;0.75;0.45;;;17.90;99.90;;;;;;4990103;28;20026;-70
2022/05/09 02:54:11;;;;;;;1.15;0.47;;;17.90;99.90;;;;;;4990823;28;20088;-72
2022/05/09 02:56:38;;;;;;;1.33;0.40;;;17.80;99.90;;;;;;4983825;28;20057;-71
2022/05/09 02:59:05;;;;;;;3.22;0.52;;;17.70;99.90;;;;;;4990404;28;20360;-70
2022/05/09 03:01:33;;;;;;;1.48;0.50;;;17.70;99.90;;;;;;4974264;28;20047;-72
2022/05/09 03:06:45;;;;;;;4.47;0.63;;;17.70;99.90;;;;;;4967290;28;20065;-71
2022/05/09 03:09:13;;;;;;;0.90;0.68;;;17.80;99.90;;;;;;4971936;28;20482;-71
2022/05/09 03:11:40;;;;;;;2.28;0.70;;;17.80;99.90;;;;;;4966368;28;20023;-71
2022/05/09 03:14:07;;;;;;;1.75;0.57;;;17.80;99.90;;;;;;4973559;28;20023;-72
2022/05/09 03:16:35;;;;;;;0.63;0.63;;;17.90;99.90;;;;;;4968328;28;20393;-70
2022/05/09 03:19:02;;;;;;;1.23;0.50;;;17.80;99.90;;;;;;4972751;28;20046;-69
2022/05/09 03:21:30;;;;;;;1.25;0.70;;;17.90;99.90;;;;;;4963485;28;20505;-70
2022/05/09 03:23:57;;;;;;;2.25;0.70;;;18.00;99.90;;;;;;4970084;28;20067;-70
2022/05/09 03:26:24;;;;;;;1.60;0.50;;;18.20;99.90;;;;;;4966654;28;20499;-70
2022/05/09 03:28:52;;;;;;;2.60;1.30;;;18.40;99.90;;;;;;4971283;28;20043;-71
2022/05/09 03:31:19;;;;;;;2.25;0.77;;;18.50;99.90;;;;;;4969386;28;20027;-71
2022/05/09 03:33:47;;;;;;;0.80;0.60;;;18.70;99.90;;;;;;4968664;28;20778;-69
2022/05/09 03:36:14;;;;;;;1.73;0.80;;;18.70;99.90;;;;;;4968522;28;20030;-70
2022/05/09 03:38:42;;;;;;;3.78;0.88;;;18.80;99.90;;;;;;4970904;28;20039;-72
2022/05/09 03:41:09;;;;;;;1.95;0.63;;;18.80;99.90;;;;;;4970690;28;20030;-70
2022/05/09 03:43:36;;;;;;;1.02;0.60;;;18.70;99.90;;;;;;4971083;28;20114;-71
2022/05/09 03:46:04;;;;;;;1.17;0.52;;;18.70;99.90;;;;;;4970107;28;20045;-70
2022/05/09 03:48:32;;;;;;;0.47;0.30;;;18.90;99.90;;;;;;4969629;28;20047;-71
2022/05/09 03:51:01;;;;;;;1.35;0.35;;;19.00;99.90;;;;;;4969019;28;20094;-70
2022/05/09 03:53:29;;;;;;;1.50;0.68;;;19.00;99.90;;;;;;4970654;28;20031;-72
2022/05/09 03:55:56;;;;;;;1.00;0.57;;;19.20;99.90;;;;;;4966662;28;20023;-71
2022/05/09 03:58:24;;;;;;;0.47;0.32;;;19.30;99.90;;;;;;4961651;28;20034;-69
2022/05/09 04:00:52;;;;;;;3.80;0.73;;;19.30;99.90;;;;;;4964159;28;20041;-71
2022/05/09 04:03:20;;;;;;;0.70;0.30;;;19.30;99.90;;;;;;4980285;28;20476;-72
2022/05/09 04:05:47;;;;;;;2.55;0.45;;;19.30;99.90;;;;;;4980729;28;20041;-70
2022/05/09 04:08:17;;;;;;;0.68;0.40;;;19.10;99.90;;;;;;4981905;28;20038;-71
2022/05/09 04:10:45;;;;;;;1.05;0.40;;;18.90;99.90;;;;;;4989405;28;20023;-71
2022/05/09 04:13:14;;;;;;;0.77;0.50;;;18.90;99.90;;;;;;4982121;28;20027;-71
2022/05/09 04:18:42;;;;;;;1.80;0.43;;;18.80;99.90;;;;;;4980670;28;20041;-72
2022/05/09 04:21:13;;;;;;;1.10;0.60;;;18.80;99.90;;;;;;4981665;28;20089;-71
2022/05/09 04:23:41;;;;;;;3.13;0.63;;;18.80;99.90;;;;;;4982378;28;20034;-70
2022/05/09 04:26:08;;;;;;;2.13;0.50;;;18.70;99.90;;;;;;4986536;28;20022;-71
2022/05/09 04:28:36;;;;;;;1.55;0.60;;;18.70;99.90;;;;;;4983095;28;20431;-71
2022/05/09 04:31:03;;;;;;;1.33;0.70;;;18.70;99.90;;;;;;4988767;28;20114;-71
2022/05/09 04:33:31;;;;;;;0.88;0.40;;;18.60;99.90;;;;;;4986349;28;20046;-71
2022/05/09 04:35:58;;;;;;;1.00;0.40;;;18.50;99.90;;;;;;4984918;28;20112;-70
2022/05/09 04:38:26;;;;;;;0.40;0.30;;;18.60;99.90;;;;;;4987958;28;20063;-70
2022/05/09 04:40:56;;;;;;;0.75;0.40;;;18.60;99.90;;;;;;4992667;28;20061;-73
2022/05/09 04:43:28;;;;;;;1.70;0.35;;;18.60;99.90;;;;;;4986241;28;20049;-72
2022/05/09 04:45:57;;;;;;;0.68;0.40;;;18.60;99.90;;;;;;4991248;28;20026;-70
2022/05/09 04:48:25;;;;;;;1.77;0.40;;;18.70;99.90;;;;;;4991591;28;20035;-71
2022/05/09 04:50:52;;;;;;;1.40;1.27;;;18.70;99.90;;;;;;4993090;28;20030;-71
2022/05/09 04:53:20;;;;;;;0.30;0.25;;;18.60;99.90;;;;;;4993078;28;20477;-71
2022/05/09 04:55:48;;;;;;;0.55;0.30;;;18.60;99.90;;;;;;4993070;28;20044;-72
2022/05/09 04:58:18;;;;;;;0.30;0.30;;;18.60;99.90;;;;;;4990435;28;20026;-71
2022/05/09 05:00:45;;;;;;;0.28;0.20;;;18.70;99.90;;;;;;4986545;28;20637;-71
2022/05/09 05:03:13;;;;;;;1.48;0.30;;;18.70;99.90;;;;;;4972225;28;20069;-70
2022/05/09 05:05:41;;;;;;;0.88;0.30;;;18.70;99.90;;;;;;4974280;28;20381;-71
2022/05/09 05:08:09;;;;;;;0.40;0.20;;;18.70;99.90;;;;;;4970230;28;20062;-70
2022/05/09 05:10:36;;;;;;;1.75;0.32;;;18.70;99.90;;;;;;4974066;28;20029;-71
2022/05/09 05:13:04;;;;;;;0.95;0.40;;;18.70;99.90;;;;;;4970732;28;20031;-71
2022/05/09 05:15:32;;;;;;;1.83;0.30;;;18.70;99.90;;;;;;4973322;28;20394;-70
2022/05/09 05:18:00;;;;;;;1.77;0.30;;;18.60;99.90;;;;;;4969990;28;20422;-72
2022/05/09 05:20:28;;;;;;;1.77;1.15;;;18.70;99.90;;;;;;4972712;28;20386;-72
2022/05/09 05:22:55;;;;;;;0.60;0.30;;;18.60;99.90;;;;;;4971612;28;20073;-71
2022/05/09 05:25:29;;;;;;;0.20;0.20;;;18.60;99.90;;;;;;4971264;28;20026;-72
2022/05/09 05:27:57;;;;;;;0.75;0.20;;;18.70;99.90;;;;;;4971434;28;20039;-72
2022/05/09 05:30:25;;;;;;;2.20;0.50;;;18.60;99.90;;;;;;4974441;28;20034;-70
2022/05/09 05:32:55;;;;;;;0.50;0.30;;;18.60;99.90;;;;;;4971674;28;20157;-71
2022/05/09 05:35:24;;;;;;;1.58;0.63;;;18.60;99.90;;;;;;4972574;28;20089;-70
2022/05/09 05:37:52;;;;;;;0.40;0.17;;;18.50;99.90;;;;;;4970054;28;20027;-70
2022/05/09 05:40:20;;;;;;;1.90;0.20;;;18.40;99.90;;;;;;4971109;28;20382;-70
2022/05/09 05:42:48;;;;;;;0.38;0.20;;;18.40;99.90;;;;;;4971306;28;20026;-72
2022/05/09 05:45:18;;;;;;;1.92;0.32;;;18.40;99.90;;;;;;4974219;28;20031;-73
2022/05/09 05:47:47;;;;;;;0.98;0.40;;;18.40;99.90;;;;;;4969640;28;20043;-73
2022/05/09 05:50:17;;;;;;;1.63;0.30;;;18.30;99.90;;;;;;4974528;28;20038;-73
2022/05/09 05:52:44;;;;;;;1.23;0.30;;;18.20;99.90;;;;;;4972433;28;20441;-74
2022/05/09 05:55:12;;;;;;;0.20;0.20;;;18.20;99.90;;;;;;4973129;28;20344;-74
2022/05/09 05:57:41;;;;;;;1.38;0.32;;;18.10;99.90;;;;;;4971477;28;20034;-72
2022/05/09 06:00:13;;;;;;;0.57;0.38;;;18.10;99.90;;;;;;4973280;28;20090;-74
2022/05/09 06:02:41;;;;;;;1.50;0.25;;;18.00;99.90;;;;;;4967068;28;20050;-72
2022/05/09 06:05:10;;;;;;;2.30;0.40;;;17.90;99.90;;;;;;4973044;28;20029;-72
2022/05/09 06:07:38;;;;;;;0.43;0.28;;;17.90;99.90;;;;;;4972048;28;20045;-75
2022/05/09 06:10:08;;;;;;;0.35;0.30;;;17.80;99.90;;;;;;4972469;28;20034;-72
2022/05/09 06:12:35;;;;;;;0.60;0.30;;;17.70;99.90;;;;;;4967841;28;20053;-72
2022/05/09 06:17:49;;;;;;;1.20;0.63;;;17.60;99.90;;;;;;4972940;28;20038;-73
2022/05/09 06:20:17;;;;;;;0.88;0.32;;;17.50;99.90;;;;;;4973967;28;20031;-72
2022/05/09 06:22:45;;;;;;;1.67;0.30;;;17.60;99.90;;;;;;4967392;28;20031;-72
2022/05/09 06:25:15;;;;;;;3.83;0.38;;;17.50;99.90;;;;;;4970395;28;20070;-73
2022/05/09 06:27:42;;;;;;;0.30;0.20;;;17.50;99.90;;;;;;4965371;28;20035;-73
2022/05/09 06:30:12;;;;;;;0.60;0.20;;;17.40;99.90;;;;;;4971072;28;20351;-73
2022/05/09 06:32:39;;;;;;;3.10;0.25;;;17.30;99.90;;;;;;4972248;28;20038;-73
2022/05/09 06:35:14;;;;;;;0.17;0.17;;;17.30;99.90;;;;;;4971828;28;20393;-72
2022/05/09 06:37:42;;;;;;;0.22;0.20;;;17.20;99.90;;;;;;4972426;28;20037;-73
2022/05/09 06:40:11;;;;;;;0.75;0.22;;;17.20;99.90;;;;;;4971943;28;20031;-73
2022/05/09 06:42:39;;;;;;;0.63;0.17;;;17.20;99.90;;;;;;4966482;28;20065;-72
2022/05/09 06:45:08;;;;;;;0.20;0.10;;;17.10;99.90;;;;;;4969053;28;20039;-73
2022/05/09 06:47:43;;;;;;;0.32;0.20;;;17.10;99.90;;;;;;4965275;28;20385;-73
2022/05/09 06:50:10;;;;;;;0.35;0.30;;;17.10;99.90;;;;;;4971368;28;20026;-72
2022/05/09 06:52:38;;;;;;;0.28;0.20;;;17.10;99.90;;;;;;4972184;28;20041;-73
2022/05/09 06:55:06;;;;;;;1.20;0.32;;;17.00;99.90;;;;;;4972598;28;20133;-73
2022/05/09 06:57:36;;;;;;;0.13;0.10;;;17.00;99.90;;;;;;4971727;28;20441;-72
2022/05/09 07:00:06;;;;;;;0.95;0.20;;;17.00;99.90;;;;;;4973380;28;20114;-72
2022/05/09 07:02:34;;;;;;;0.15;0.05;;;16.90;99.90;;;;;;4988820;28;20382;-73
2022/05/09 07:05:07;;;;;;;1.02;0.10;;;16.90;99.90;;;;;;4991659;28;20030;-74
2022/05/09 07:07:36;;;;;;;0.28;0.10;;;16.90;99.90;;;;;;4987673;28;20054;-73
2022/05/09 07:10:05;;;;;;;0.73;0.30;;;16.90;99.90;;;;;;4986972;28;20026;-75
2022/05/09 07:12:40;;;;;;;2.28;0.17;;;16.90;99.90;;;;;;4989491;28;20058;-73
2022/05/09 07:15:08;;;;;;;0.25;0.20;;;16.90;99.90;;;;;;4989957;28;20492;-73
2022/05/09 07:17:35;;;;;;;0.75;0.30;;;16.90;99.90;;;;;;4989472;28;20050;-72
2022/05/09 07:20:03;;;;;;;2.42;0.30;;;16.80;99.90;;;;;;4991999;28;20046;-72
2022/05/09 07:22:31;;;;;;;0.85;0.20;;;16.80;99.90;;;;;;4991286;28;20469;-75
2022/05/09 07:24:59;;;;;;;0.30;0.10;;;16.80;99.90;;;;;;4993722;28;20039;-75
2022/05/09 07:27:26;;;;;;;0.45;0.20;;;16.70;99.90;;;;;;4994908;28;20114;-75
2022/05/09 07:29:53;;;;;;;0.40;0.20;;;16.70;99.90;;;;;;4995117;28;20465;-74
2022/05/09 07:32:21;;;;;;;0.85;0.22;;;16.70;99.90;;;;;;4990143;28;20038;-73
2022/05/09 07:34:51;;;;;;;2.28;0.20;;;16.70;99.90;;;;;;4993954;28;20078;-74
2022/05/09 07:37:19;;;;;;;0.60;0.28;;;16.70;99.90;;;;;;4989530;28;20103;-75
2022/05/09 07:39:46;;;;;;;1.90;0.60;;;16.60;99.90;;;;;;4993104;28;20042;-73
2022/05/09 07:42:14;;;;;;;1.65;0.30;;;16.60;99.90;;;;;;4983064;28;20415;-74
2022/05/09 07:44:41;;;;;;;1.00;0.30;;;16.60;99.90;;;;;;4972228;28;20041;-74
2022/05/09 07:47:09;;;;;;;1.75;0.65;;;16.60;99.90;;;;;;4984631;28;20504;-75
2022/05/09 07:49:36;;;;;;;4.40;0.57;;;16.60;99.90;;;;;;4992311;28;20479;-73
2022/05/09 07:52:06;;;;;;;1.08;0.35;;;16.60;99.90;;;;;;4990144;28;20018;-74
2022/05/09 07:54:33;;;;;;;1.13;0.60;;;16.50;99.90;;;;;;4992177;28;20030;-74
2022/05/09 07:57:00;;;;;;;0.43;0.32;;;16.50;99.90;;;;;;4986399;28;20496;-74
2022/05/09 07:59:28;;;;;;;2.33;0.80;;;16.50;99.90;;;;;;4991556;28;20066;-75
2022/05/09 08:01:55;;;;;;;2.10;1.10;;;16.40;99.90;;;;;;4969704;28;20043;-75
2022/05/09 08:04:24;;;;;;;5.75;3.47;;;16.40;99.90;;;;;;4971540;28;20035;-75
2022/05/09 08:06:51;;;;;;;3.00;1.60;;;16.40;99.90;;;;;;4966014;28;20035;-72
2022/05/09 08:09:19;;;;;;;1.90;1.23;;;16.40;99.90;;;;;;4972630;28;20030;-74
2022/05/09 08:11:46;;;;;;;2.83;1.30;;;16.30;99.90;;;;;;4969217;28;20053;-73
2022/05/09 08:14:14;;;;;;;1.50;0.98;;;16.30;99.90;;;;;;4972912;28;20035;-74
2022/05/09 08:16:42;;;;;;;2.53;1.33;;;16.30;99.90;;;;;;4968620;28;20049;-72
2022/05/09 08:19:11;;;;;;;1.50;0.90;;;16.30;99.90;;;;;;4972677;28;20037;-74
2022/05/09 08:21:39;;;;;;;4.35;1.50;;;16.20;99.90;;;;;;4971025;28;20351;-74
2022/05/09 08:24:10;;;;;;;2.97;1.52;;;16.20;99.90;;;;;;4972901;28;20046;-74
2022/05/09 08:26:37;;;;;;;2.58;1.40;;;16.20;99.90;;;;;;4970369;28;20381;-73
2022/05/09 08:29:07;;;;;;;3.80;2.08;;;16.20;99.90;;;;;;4972254;28;20038;-73
2022/05/09 08:31:35;;;;;;;4.75;2.60;;;16.20;99.90;;;;;;4971404;28;20046;-74
2022/05/09 08:34:02;;;;;;;2.85;1.88;;;16.20;99.90;;;;;;4972145;28;20397;-73
2022/05/09 08:39:15;;;;;;;2.88;1.77;;;16.20;99.90;;;;;;4973212;28;20033;-73
2022/05/09 08:41:45;;;;;;;3.38;1.33;;;16.20;99.90;;;;;;4969244;28;20113;-73
2022/05/09 08:44:43;;;;;;;2.88;1.27;;;16.10;99.90;;;;;;4972765;28;20386;-74
2022/05/09 08:47:38;;;;;;;2.30;1.55;;;16.10;99.90;;;;;;4970011;28;20046;-73
2022/05/09 08:50:34;;;;;;;1.77;1.20;;;16.10;99.90;;;;;;4971042;28;20062;-74
2022/05/09 08:53:07;;;;;;;2.38;2.15;;;16.10;99.90;;;;;;4968686;28;20034;-74
2022/05/09 08:55:40;;;;;;;4.57;3.60;;;16.10;99.90;;;;;;4972697;28;20022;-75
2022/05/09 08:58:37;;;;;;;3.03;2.75;;;16.10;99.90;;;;;;4969986;28;20042;-75
2022/05/09 09:01:20;;;;;;;2.58;1.70;;;16.00;99.90;;;;;;4959771;28;20047;-73
2022/05/09 09:04:05;;;;;;;4.30;1.60;;;16.00;99.90;;;;;;4971716;28;20462;-74
2022/05/09 09:07:10;;;;;;;3.42;1.63;;;16.00;99.90;;;;;;4970811;28;20093;-74
2022/05/09 09:10:02;;;;;;;3.15;2.63;;;16.00;99.90;;;;;;4970952;28;20035;-73
2022/05/09 09:12:43;;;;;;;3.15;2.85;;;16.00;99.90;;;;;;4966918;28;20492;-76
2022/05/09 09:15:20;;;;;;;11.70;5.93;;;16.00;99.90;;;;;;4971355;28;20035;-73
2022/05/09 09:18:06;;;;;;;15.07;6.38;;;16.00;99.90;;;;;;4969832;28;20023;-73
2022/05/09 09:21:06;;;;;;;16.23;7.38;;;16.00;99.90;;;;;;4967026;28;20027;-72
2022/05/09 09:23:45;;;;;;;11.45;6.53;;;16.00;99.90;;;;;;4954389;28;20094;-73
2022/05/09 09:26:28;;;;;;;13.25;6.85;;;16.00;99.90;;;;;;4959125;28;20058;-73
2022/05/09 09:29:14;;;;;;;5.97;4.53;;;16.00;99.90;;;;;;4973632;28;20070;-75
2022/05/09 09:31:50;;;;;;;5.73;3.23;;;15.90;99.90;;;;;;4974130;28;20033;-73
2022/05/09 09:34:46;;;;;;;5.50;3.17;;;15.90;99.90;;;;;;4976125;28;20362;-73
2022/05/09 09:37:30;;;;;;;2.55;1.50;;;15.90;99.90;;;;;;4967840;28;20532;-73
2022/05/09 09:39:57;;;;;;;2.60;1.25;;;15.90;99.90;;;;;;4956277;29;20138;-74
2022/05/09 09:42:25;;;;;;;4.85;1.45;;;15.90;99.90;;;;;;4965397;28;20437;-74
2022/05/09 09:44:54;;;;;;;3.03;1.10;;;15.80;99.90;;;;;;4975564;28;20034;-75
2022/05/09 09:47:27;;;;;;;2.40;1.02;;;15.80;99.90;;;;;;4972777;28;20493;-72
2022/05/09 09:50:12;;;;;;;3.22;0.80;;;15.80;99.90;;;;;;4975528;28;20056;-74
2022/05/09 09:52:46;;;;;;;3.00;0.60;;;15.80;99.90;;;;;;4970938;28;20022;-73
2022/05/09 09:55:32;;;;;;;1.58;0.52;;;15.70;99.90;;;;;;4975604;28;20397;-74
2022/05/09 09:58:40;;;;;;;0.80;0.40;;;15.70;99.90;;;;;;4973305;28;20031;-74
2022/05/09 10:01:14;;;;;;;;;;;15.60;99.90;;;;;;4966831;28;20564;-74
2022/05/09 10:03:44;;;;;;;1.92;0.80;;;15.60;99.90;;;;;;4966430;28;20345;-73
2022/05/09 10:06:58;;;;;;;2.33;1.20;;;15.50;99.90;;;;;;4971860;28;20105;-74
2022/05/09 10:09:28;;;;;;;1.13;0.80;;;15.50;99.90;;;;;;4969137;28;20069;-74
2022/05/09 10:12:13;;;;;;;4.30;0.68;;;15.50;99.90;;;;;;4972082;28;20034;-73
2022/05/09 10:14:40;;;;;;;1.23;0.75;;;15.50;99.90;;;;;;4971294;28;20244;-73
2022/05/09 10:17:26;;;;;;;1.88;0.65;;;15.50;99.90;;;;;;4971151;28;20027;-75
2022/05/09 10:19:59;;;;;;;1.05;0.30;;;15.50;99.90;;;;;;4973711;28;20110;-74
2022/05/09 10:25:26;;;;;;;2.67;0.30;;;15.50;99.90;;;;;;4969090;28;20515;-73
2022/05/09 10:28:07;;;;;;;1.83;0.50;;;15.50;99.90;;;;;;4970653;28;20428;-75
2022/05/09 10:30:55;;;;;;;1.33;0.50;;;15.50;99.90;;;;;;4972448;28;20389;-74
2022/05/09 10:33:40;;;;;;;1.00;0.40;;;15.50;99.90;;;;;;4971070;28;20531;-75
2022/05/09 10:36:36;;;;;;;0.67;0.30;;;15.50;99.90;;;;;;4972881;28;20122;-73
2022/05/09 10:39:20;;;;;;;0.88;0.30;;;15.50;99.90;;;;;;4953125;28;20289;-73
2022/05/09 10:42:00;;;;;;;0.85;0.30;;;15.50;99.90;;;;;;4963712;28;20050;-74
2022/05/09 10:44:41;;;;;;;0.60;0.30;;;15.50;99.90;;;;;;4977214;28;20477;-73
2022/05/09 10:47:21;;;;;;;0.82;0.30;;;15.50;99.90;;;;;;4972967;28;20043;-74
2022/05/09 10:49:51;;;;;;;0.80;0.30;;;15.50;99.90;;;;;;4973499;28;20034;-75
2022/05/09 10:52:26;;;;;;;0.50;0.30;;;15.50;99.90;;;;;;4971923;28;20030;-72
2022/05/09 10:55:13;;;;;;;0.63;0.35;;;15.50;99.90;;;;;;4970288;28;20109;-74
2022/05/09 10:57:59;;;;;;;0.77;0.43;;;15.50;99.90;;;;;;4971060;28;20536;-74
2022/05/09 11:00:28;;;;;;;2.03;0.47;;;15.50;99.90;;;;;;4885677;28;2532596;-74
2022/05/09 11:03:07;;;;;;;0.95;0.40;;;15.50;99.90;;;;;;4991628;28;20034;-75
2022/05/09 11:06:01;;;;;;;0.60;0.30;;;15.50;99.90;;;;;;4992646;28;20493;-73
2022/05/09 11:08:46;;;;;;;2.05;0.55;;;15.50;99.90;;;;;;4992930;28;20058;-74
2022/05/09 11:11:26;;;;;;;0.70;0.50;;;15.40;99.90;;;;;;4992733;28;20392;-73
2022/05/09 11:14:33;;;;;;;0.60;0.30;;;15.50;99.90;;;;;;4993315;28;20057;-74
2022/05/09 11:17:31;;;;;;;1.00;0.50;;;15.40;99.90;;;;;;4990309;28;20026;-74
2022/05/09 11:20:04;;;;;;;1.05;0.30;;;15.40;99.90;;;;;;4992886;28;20034;-73
2022/05/09 11:22:44;;;;;;;1.67;0.30;;;15.40;99.90;;;;;;4990352;28;20112;-74
2022/05/09 11:25:36;;;;;;;0.52;0.40;;;15.40;99.90;;;;;;4992863;28;20026;-72
2022/05/09 11:28:20;;;;;;;0.70;0.30;;;15.30;99.90;;;;;;4991429;28;20053;-74
2022/05/09 11:31:13;;;;;;;1.15;0.40;;;15.30;99.90;;;;;;4992963;28;20034;-74
2022/05/09 11:33:56;;;;;;;0.70;0.28;;;15.30;99.90;;;;;;4971510;28;20054;-74
2022/05/09 11:36:36;;;;;;;0.82;0.50;;;15.20;99.90;;;;;;4981094;28;20045;-73
2022/05/09 11:39:29;;;;;;;0.60;0.47;;;15.20;99.90;;;;;;4992953;28;20068;-73
2022/05/09 11:45:28;;;;;;;1.75;0.73;;;15.10;99.90;;;;;;4982917;28;20065;-73
2022/05/09 11:47:58;;;;;;;0.88;0.43;;;15.10;99.90;;;;;;4991077;28;20050;-74
2022/05/09 11:50:32;;;;;;;1.08;0.50;;;15.10;99.90;;;;;;4991117;28;20080;-74
2022/05/09 11:53:02;;;;;;;1.00;0.68;;;15.00;99.90;;;;;;4990321;28;20034;-72
2022/05/09 11:55:30;;;;;;;0.93;0.50;;;15.00;99.90;;;;;;4992376;28;20022;-74
2022/05/09 11:58:00;;;;;;;2.03;0.60;;;15.00;99.90;;;;;;4989101;28;20037;-74
2022/05/09 12:00:30;;;;;;;1.10;0.50;;;14.90;99.90;;;;;;4987735;28;20077;-73
2022/05/09 12:03:05;;;;;;;0.60;0.30;;;14.90;99.90;;;;;;4967304;28;20486;-73
2022/05/09 12:05:33;;;;;;;0.40;0.30;;;14.90;99.90;;;;;;4973072;28;20030;-74
2022/05/09 12:08:49;;;;;;;1.15;0.40;;;14.90;99.90;;;;;;4959352;28;20290;-73
2022/05/09 12:11:33;;;;;;;3.83;0.35;;;14.80;99.90;;;;;;4950436;28;20174;-73
2022/05/09 12:14:04;;;;;;;1.50;1.05;;;14.80;99.90;;;;;;4973610;28;20377;-74
2022/05/09 12:16:39;;;;;;;0.40;0.40;;;14.80;99.90;;;;;;4970851;28;20396;-73
2022/05/09 12:19:32;;;;;;;1.17;0.47;;;14.80;99.90;;;;;;4973082;28;20207;-74
2022/05/09 12:22:35;;;;;;;0.55;0.50;;;14.80;99.90;;;;;;4970495;28;20026;-74
2022/05/09 12:25:05;;;;;;;0.43;0.35;;;14.80;99.90;;;;;;4972237;28;20039;-73
2022/05/09 12:27:47;;;;;;;1.27;0.50;;;14.70;99.90;;;;;;4969802;28;20106;-73
2022/05/09 12:30:35;;;;;;;0.90;0.30;;;14.80;99.90;;;;;;4970812;28;20073;-73
2022/05/09 12:33:13;;;;;;;1.88;0.38;;;14.80;99.90;;;;;;4970958;28;20043;-73
2022/05/09 12:35:42;;;;;;;0.35;0.30;;;14.80;99.90;;;;;;4972695;28;20038;-74
2022/05/09 12:38:14;;;;;;;1.10;0.35;;;14.80;99.90;;;;;;4970790;28;20038;-75
2022/05/09 12:40:42;;;;;;;0.43;0.30;;;14.90;99.90;;;;;;4971919;28;20055;-73
2022/05/09 12:43:10;;;;;;;3.03;0.50;;;14.90;99.90;;;;;;4970458;28;20381;-74
2022/05/09 12:45:40;;;;;;;0.40;0.20;;;14.90;99.90;;;;;;4972689;28;20548;-74
2022/05/09 12:48:11;;;;;;;0.30;0.30;;;14.90;99.90;;;;;;4970827;28;20043;-74
2022/05/09 12:50:43;;;;;;;1.33;0.40;;;14.90;99.90;;;;;;4969284;28;20101;-73
2022/05/09 12:53:14;;;;;;;1.23;0.50;;;15.00;99.90;;;;;;4967392;28;20497;-73
2022/05/09 12:55:56;;;;;;;1.17;0.30;;;15.00;99.90;;;;;;4971716;28;20026;-75
2022/05/09 12:58:27;;;;;;;2.00;0.38;;;15.00;99.90;;;;;;4970006;28;20039;-73
2022/05/09 13:01:10;;;;;;;0.73;0.50;;;15.00;99.90;;;;;;4965485;28;20117;-73
2022/05/09 13:03:51;;;;;;;1.50;0.40;;;15.00;99.90;;;;;;4974259;28;20121;-73
2022/05/09 13:06:25;;;;;;;1.13;0.57;;;15.00;99.90;;;;;;4974072;28;20109;-73
2022/05/09 13:08:53;;;;;;;0.90;0.65;;;15.00;99.90;;;;;;4976212;28;20433;-72
2022/05/09 13:11:24;;;;;;;1.77;0.60;;;15.00;99.90;;;;;;4972835;28;20070;-72
2022/05/09 13:14:02;;;;;;;1.70;0.80;;;15.00;99.90;;;;;;4976566;28;20035;-73
2022/05/09 13:16:33;;;;;;;2.97;0.90;;;15.00;99.90;;;;;;4973877;28;20491;-74
2022/05/09 13:19:01;;;;;;;2.20;0.63;;;15.00;99.90;;;;;;4975864;28;20547;-73
2022/05/09 13:21:35;;;;;;;1.98;0.80;;;15.00;99.90;;;;;;4973780;28;20031;-74
2022/05/09 13:24:03;;;;;;;1.70;1.08;;;15.00;99.90;;;;;;4976126;28;20077;-73
2022/05/09 13:26:31;;;;;;;2.08;0.75;;;15.00;99.90;;;;;;4974387;28;20485;-73
2022/05/09 13:29:09;;;;;;;5.25;0.98;;;15.00;99.90;;;;;;4974528;28;20043;-73
2022/05/09 13:31:46;;;;;;;1.65;0.95;;;15.00;99.90;;;;;;4969825;28;20054;-73
2022/05/09 13:34:45;;;;;;;1.30;1.17;;;15.00;99.90;;;;;;4975922;28;20108;-74
2022/05/09 13:37:14;;;;;;;1.38;1.08;;;15.00;99.90;;;;;;4970473;28;20027;-73
2022/05/09 13:39:42;;;;;;;1.17;0.80;;;15.00;99.90;;;;;;4975740;28;20030;-72